sensor_id;sensor_type;location;lat;lon;timestamp;temperature;humidity
31046;DHT22;17711;54.018;9.300;2023-03-01T00:01:47;2.00;99.90
31046;DHT22;17711;54.018;9.300;2023-03-01T00:04:16;2.00;99.90
31046;DHT22;17711;54.018;9.300;2023-03-01T00:06:46;2.00;99.90
31046;DHT22;17711;54.018;9.300;2023-03-01T00:09:15;1.90;99.90
31046;DHT22;17711;54.018;9.300;2023-03-01T00:11:45;1.70;99.90
31046;DHT22;17711;54.018;9.300;2023-03-01T00:14:14;1.60;99.90
31046;DHT22;17711;54.018;9.300;2023-03-01T00:16:45;1.60;99.90
31046;DHT22;17711;54.018;9.300;2023-03-01T00:19:16;1.70;99.90
31046;DHT22;17711;54.018;9.300;2023-03-01T00:21:46;1.90;99.90
31046;DHT22;17711;54.018;9.300;2023-03-01T00:24:15;2.10;99.90
31046;DHT22;17711;54.018;9.300;2023-03-01T00:26:44;2.30;99.90
31046;DHT22;17711;54.018;9.300;2023-03-01T00:29:14;2.40;99.90
31046;DHT22;17711;54.018;9.300;2023-03-01T00:31:43;2.50;99.90
31046;DHT22;17711;54.018;9.300;2023-03-01T00:34:12;2.60;99.90
31046;DHT22;17711;54.018;9.300;2023-03-01T00:36:41;2.60;99.90
31046;DHT22;17711;54.018;9.300;2023-03-01T00:39:13;2.40;99.90
31046;DHT22;17711;54.018;9.300;2023-03-01T00:41:43;2.30;99.90
31046;DHT22;17711;54.018;9.300;2023-03-01T00:44:13;2.30;99.90
31046;DHT22;17711;54.018;9.300;2023-03-01T00:46:42;2.20;99.90
31046;DHT22;17711;54.018;9.300;2023-03-01T00:49:12;2.10;99.90
31046;DHT22;17711;54.018;9.300;2023-03-01T00:51:43;2.00;99.90
31046;DHT22;17711;54.018;9.300;2023-03-01T00:54:14;2.00;99.90
31046;DHT22;17711;54.018;9.300;2023-03-01T00:56:43;1.90;99.90
31046;DHT22;17711;54.018;9.300;2023-03-01T00:59:14;1.90;99.90
31046;DHT22;17711;54.018;9.300;2023-03-01T01:01:48;1.80;99.90
31046;DHT22;17711;54.018;9.300;2023-03-01T01:04:22;1.80;99.90
31046;DHT22;17711;54.018;9.300;2023-03-01T01:06:56;1.80;99.90
31046;DHT22;17711;54.018;9.300;2023-03-01T01:09:33;1.90;99.90
31046;DHT22;17711;54.018;9.300;2023-03-01T01:12:06;1.90;99.90
31046;DHT22;17711;54.018;9.300;2023-03-01T01:14:36;1.90;99.90
31046;DHT22;17711;54.018;9.300;2023-03-01T01:17:05;1.80;99.90
31046;DHT22;17711;54.018;9.300;2023-03-01T01:19:34;1.90;99.90
31046;DHT22;17711;54.018;9.300;2023-03-01T01:22:04;1.80;99.90
31046;DHT22;17711;54.018;9.300;2023-03-01T01:24:35;1.80;99.90
31046;DHT22;17711;54.018;9.300;2023-03-01T01:27:05;1.60;99.90
31046;DHT22;17711;54.018;9.300;2023-03-01T01:29:34;1.60;99.90
31046;DHT22;17711;54.018;9.300;2023-03-01T01:32:04;1.60;99.90
31046;DHT22;17711;54.018;9.300;2023-03-01T01:34:32;1.60;99.90
31046;DHT22;17711;54.018;9.300;2023-03-01T01:37:01;1.50;99.90
31046;DHT22;17711;54.018;9.300;2023-03-01T01:39:30;1.50;99.90
31046;DHT22;17711;54.018;9.300;2023-03-01T01:42:02;1.40;99.90
31046;DHT22;17711;54.018;9.300;2023-03-01T01:44:33;1.40;99.90
31046;DHT22;17711;54.018;9.300;2023-03-01T01:47:05;1.30;99.90
31046;DHT22;17711;54.018;9.300;2023-03-01T01:49:38;1.30;99.90
31046;DHT22;17711;54.018;9.300;2023-03-01T01:52:13;1.40;99.90
31046;DHT22;17711;54.018;9.300;2023-03-01T01:54:45;1.40;99.90
31046;DHT22;17711;54.018;9.300;2023-03-01T01:57:20;1.50;99.90
31046;DHT22;17711;54.018;9.300;2023-03-01T01:59:53;1.50;99.90
31046;DHT22;17711;54.018;9.300;2023-03-01T02:02:22;1.60;99.90
31046;DHT22;17711;54.018;9.300;2023-03-01T02:04:58;1.50;99.90
31046;DHT22;17711;54.018;9.300;2023-03-01T02:07:31;1.50;99.90
31046;DHT22;17711;54.018;9.300;2023-03-01T02:10:02;1.60;99.90
31046;DHT22;17711;54.018;9.300;2023-03-01T02:12:34;1.50;99.90
31046;DHT22;17711;54.018;9.300;2023-03-01T02:15:05;1.50;99.90
31046;DHT22;17711;54.018;9.300;2023-03-01T02:17:36;1.50;99.90
31046;DHT22;17711;54.018;9.300;2023-03-01T02:20:18;1.50;99.90
31046;DHT22;17711;54.018;9.300;2023-03-01T02:22:52;1.50;99.90
31046;DHT22;17711;54.018;9.300;2023-03-01T02:25:30;1.50;99.90
31046;DHT22;17711;54.018;9.300;2023-03-01T02:28:10;1.50;99.90
31046;DHT22;17711;54.018;9.300;2023-03-01T02:30:44;1.50;99.90
31046;DHT22;17711;54.018;9.300;2023-03-01T02:33:30;1.60;99.90
31046;DHT22;17711;54.018;9.300;2023-03-01T02:36:06;1.60;99.90
31046;DHT22;17711;54.018;9.300;2023-03-01T02:38:36;1.60;99.90
31046;DHT22;17711;54.018;9.300;2023-03-01T02:41:06;1.60;99.90
31046;DHT22;17711;54.018;9.300;2023-03-01T02:43:35;1.60;99.90
31046;DHT22;17711;54.018;9.300;2023-03-01T02:46:07;1.60;99.90
31046;DHT22;17711;54.018;9.300;2023-03-01T02:48:41;1.60;99.90
31046;DHT22;17711;54.018;9.300;2023-03-01T02:51:19;1.60;99.90
31046;DHT22;17711;54.018;9.300;2023-03-01T02:53:56;1.60;99.90
31046;DHT22;17711;54.018;9.300;2023-03-01T02:56:28;1.60;99.90
31046;DHT22;17711;54.018;9.300;2023-03-01T02:58:57;1.70;99.90
31046;DHT22;17711;54.018;9.300;2023-03-01T03:01:29;1.60;99.90
31046;DHT22;17711;54.018;9.300;2023-03-01T03:04:04;1.70;99.90
31046;DHT22;17711;54.018;9.300;2023-03-01T03:06:33;1.60;99.90
31046;DHT22;17711;54.018;9.300;2023-03-01T03:09:03;1.60;99.90
31046;DHT22;17711;54.018;9.300;2023-03-01T03:11:32;1.60;99.90
31046;DHT22;17711;54.018;9.300;2023-03-01T03:14:00;1.60;99.90
31046;DHT22;17711;54.018;9.300;2023-03-01T03:16:30;1.70;99.90
31046;DHT22;17711;54.018;9.300;2023-03-01T03:18:59;1.70;99.90
31046;DHT22;17711;54.018;9.300;2023-03-01T03:21:32;1.70;99.90
31046;DHT22;17711;54.018;9.300;2023-03-01T03:24:01;1.70;99.90
31046;DHT22;17711;54.018;9.300;2023-03-01T03:26:29;1.90;99.90
31046;DHT22;17711;54.018;9.300;2023-03-01T03:28:58;2.00;99.90
31046;DHT22;17711;54.018;9.300;2023-03-01T03:31:27;2.10;99.90
31046;DHT22;17711;54.018;9.300;2023-03-01T03:33:57;2.20;99.90
31046;DHT22;17711;54.018;9.300;2023-03-01T03:36:27;2.20;99.90
31046;DHT22;17711;54.018;9.300;2023-03-01T03:38:55;2.20;99.90
31046;DHT22;17711;54.018;9.300;2023-03-01T03:41:24;2.30;99.90
31046;DHT22;17711;54.018;9.300;2023-03-01T03:43:53;2.30;99.90
31046;DHT22;17711;54.018;9.300;2023-03-01T03:46:21;2.20;99.90
31046;DHT22;17711;54.018;9.300;2023-03-01T03:48:49;2.20;99.90
31046;DHT22;17711;54.018;9.300;2023-03-01T03:51:19;2.10;99.90
31046;DHT22;17711;54.018;9.300;2023-03-01T03:53:49;2.10;99.90
31046;DHT22;17711;54.018;9.300;2023-03-01T03:56:18;2.10;99.90
31046;DHT22;17711;54.018;9.300;2023-03-01T03:58:46;2.10;99.90
31046;DHT22;17711;54.018;9.300;2023-03-01T04:01:16;2.10;99.90
31046;DHT22;17711;54.018;9.300;2023-03-01T04:03:45;2.10;99.90
31046;DHT22;17711;54.018;9.300;2023-03-01T04:06:14;2.10;99.90
31046;DHT22;17711;54.018;9.300;2023-03-01T04:08:44;2.00;99.90
31046;DHT22;17711;54.018;9.300;2023-03-01T04:11:13;1.90;99.90
31046;DHT22;17711;54.018;9.300;2023-03-01T04:13:55;1.90;99.90
31046;DHT22;17711;54.018;9.300;2023-03-01T04:16:24;1.90;99.90
31046;DHT22;17711;54.018;9.300;2023-03-01T04:18:53;1.90;99.90
31046;DHT22;17711;54.018;9.300;2023-03-01T04:21:26;1.90;99.90
31046;DHT22;17711;54.018;9.300;2023-03-01T04:23:56;1.80;99.90
31046;DHT22;17711;54.018;9.300;2023-03-01T04:26:25;1.80;99.90
31046;DHT22;17711;54.018;9.300;2023-03-01T04:28:54;1.70;99.90
31046;DHT22;17711;54.018;9.300;2023-03-01T04:31:22;1.80;99.90
31046;DHT22;17711;54.018;9.300;2023-03-01T04:33:52;1.80;99.90
31046;DHT22;17711;54.018;9.300;2023-03-01T04:36:23;1.80;99.90
31046;DHT22;17711;54.018;9.300;2023-03-01T04:38:52;1.80;99.90
31046;DHT22;17711;54.018;9.300;2023-03-01T04:41:24;1.80;99.90
31046;DHT22;17711;54.018;9.300;2023-03-01T04:43:53;1.90;99.90
31046;DHT22;17711;54.018;9.300;2023-03-01T04:46:22;1.90;99.90
31046;DHT22;17711;54.018;9.300;2023-03-01T04:48:50;2.00;99.90
31046;DHT22;17711;54.018;9.300;2023-03-01T04:51:19;1.90;99.90
31046;DHT22;17711;54.018;9.300;2023-03-01T04:53:48;1.90;99.90
31046;DHT22;17711;54.018;9.300;2023-03-01T04:56:17;1.90;99.90
31046;DHT22;17711;54.018;9.300;2023-03-01T04:58:48;1.80;99.90
31046;DHT22;17711;54.018;9.300;2023-03-01T05:01:19;1.70;99.90
31046;DHT22;17711;54.018;9.300;2023-03-01T05:03:49;1.70;99.90
31046;DHT22;17711;54.018;9.300;2023-03-01T05:06:19;1.70;99.90
31046;DHT22;17711;54.018;9.300;2023-03-01T05:08:48;1.70;99.90
31046;DHT22;17711;54.018;9.300;2023-03-01T05:11:17;1.70;99.90
31046;DHT22;17711;54.018;9.300;2023-03-01T05:13:45;1.70;99.90
31046;DHT22;17711;54.018;9.300;2023-03-01T05:16:15;1.70;99.90
31046;DHT22;17711;54.018;9.300;2023-03-01T05:18:44;1.70;99.90
31046;DHT22;17711;54.018;9.300;2023-03-01T05:21:14;1.70;99.90
31046;DHT22;17711;54.018;9.300;2023-03-01T05:23:44;1.70;99.90
31046;DHT22;17711;54.018;9.300;2023-03-01T05:26:14;1.70;99.90
31046;DHT22;17711;54.018;9.300;2023-03-01T05:28:54;1.80;99.90
31046;DHT22;17711;54.018;9.300;2023-03-01T05:31:28;1.80;99.90
31046;DHT22;17711;54.018;9.300;2023-03-01T05:33:58;1.80;99.90
31046;DHT22;17711;54.018;9.300;2023-03-01T05:36:26;1.80;99.90
31046;DHT22;17711;54.018;9.300;2023-03-01T05:38:55;1.80;99.90
31046;DHT22;17711;54.018;9.300;2023-03-01T05:41:24;1.90;99.90
31046;DHT22;17711;54.018;9.300;2023-03-01T05:43:52;1.90;99.90
31046;DHT22;17711;54.018;9.300;2023-03-01T05:46:21;1.90;99.90
31046;DHT22;17711;54.018;9.300;2023-03-01T05:48:53;1.90;99.90
31046;DHT22;17711;54.018;9.300;2023-03-01T05:51:22;1.90;99.90
31046;DHT22;17711;54.018;9.300;2023-03-01T05:53:50;1.90;99.90
31046;DHT22;17711;54.018;9.300;2023-03-01T05:56:19;1.90;99.90
31046;DHT22;17711;54.018;9.300;2023-03-01T05:58:49;1.90;99.90
31046;DHT22;17711;54.018;9.300;2023-03-01T06:01:17;1.90;99.90
31046;DHT22;17711;54.018;9.300;2023-03-01T06:03:46;1.90;99.90
31046;DHT22;17711;54.018;9.300;2023-03-01T06:06:16;1.90;99.90
31046;DHT22;17711;54.018;9.300;2023-03-01T06:08:45;1.90;99.90
31046;DHT22;17711;54.018;9.300;2023-03-01T06:11:13;1.90;99.90
31046;DHT22;17711;54.018;9.300;2023-03-01T06:13:42;1.90;99.90
31046;DHT22;17711;54.018;9.300;2023-03-01T06:16:11;1.90;99.90
31046;DHT22;17711;54.018;9.300;2023-03-01T06:18:40;2.00;99.90
31046;DHT22;17711;54.018;9.300;2023-03-01T06:21:09;2.00;99.90
31046;DHT22;17711;54.018;9.300;2023-03-01T06:23:39;2.10;99.90
31046;DHT22;17711;54.018;9.300;2023-03-01T06:26:08;2.00;99.90
31046;DHT22;17711;54.018;9.300;2023-03-01T06:28:37;2.10;99.90
31046;DHT22;17711;54.018;9.300;2023-03-01T06:31:05;2.10;99.90
31046;DHT22;17711;54.018;9.300;2023-03-01T06:33:36;2.10;99.90
31046;DHT22;17711;54.018;9.300;2023-03-01T06:36:05;2.20;99.90
31046;DHT22;17711;54.018;9.300;2023-03-01T06:38:33;2.30;99.90
31046;DHT22;17711;54.018;9.300;2023-03-01T06:41:04;2.30;99.90
31046;DHT22;17711;54.018;9.300;2023-03-01T06:43:32;2.30;99.90
31046;DHT22;17711;54.018;9.300;2023-03-01T06:46:04;2.30;99.90
31046;DHT22;17711;54.018;9.300;2023-03-01T06:48:34;2.30;99.90
31046;DHT22;17711;54.018;9.300;2023-03-01T06:51:03;2.40;99.90
31046;DHT22;17711;54.018;9.300;2023-03-01T06:53:32;2.40;99.90
31046;DHT22;17711;54.018;9.300;2023-03-01T06:56:02;2.50;99.90
31046;DHT22;17711;54.018;9.300;2023-03-01T06:58:31;2.50;99.90
31046;DHT22;17711;54.018;9.300;2023-03-01T07:00:59;2.50;99.90
31046;DHT22;17711;54.018;9.300;2023-03-01T07:03:28;2.50;99.90
31046;DHT22;17711;54.018;9.300;2023-03-01T07:05:56;2.50;99.90
31046;DHT22;17711;54.018;9.300;2023-03-01T07:08:24;2.60;99.90
31046;DHT22;17711;54.018;9.300;2023-03-01T07:10:55;2.60;99.90
31046;DHT22;17711;54.018;9.300;2023-03-01T07:13:25;2.70;99.90
31046;DHT22;17711;54.018;9.300;2023-03-01T07:15:54;2.80;99.90
31046;DHT22;17711;54.018;9.300;2023-03-01T07:18:22;2.80;99.90
31046;DHT22;17711;54.018;9.300;2023-03-01T07:20:51;2.80;99.90
31046;DHT22;17711;54.018;9.300;2023-03-01T07:23:19;2.90;99.90
31046;DHT22;17711;54.018;9.300;2023-03-01T07:25:52;3.00;99.90
31046;DHT22;17711;54.018;9.300;2023-03-01T07:28:22;3.00;99.90
31046;DHT22;17711;54.018;9.300;2023-03-01T07:30:52;3.20;99.90
31046;DHT22;17711;54.018;9.300;2023-03-01T07:33:21;3.20;99.90
31046;DHT22;17711;54.018;9.300;2023-03-01T07:35:56;3.20;99.90
31046;DHT22;17711;54.018;9.300;2023-03-01T07:38:25;3.20;99.90
31046;DHT22;17711;54.018;9.300;2023-03-01T07:40:54;3.30;99.90
31046;DHT22;17711;54.018;9.300;2023-03-01T07:43:26;3.30;99.90
31046;DHT22;17711;54.018;9.300;2023-03-01T07:45:58;3.50;99.90
31046;DHT22;17711;54.018;9.300;2023-03-01T07:48:27;3.50;99.90
31046;DHT22;17711;54.018;9.300;2023-03-01T07:50:58;3.60;99.90
31046;DHT22;17711;54.018;9.300;2023-03-01T07:53:27;3.70;99.90
31046;DHT22;17711;54.018;9.300;2023-03-01T07:56:03;3.70;99.90
31046;DHT22;17711;54.018;9.300;2023-03-01T07:58:33;3.80;99.90
31046;DHT22;17711;54.018;9.300;2023-03-01T08:01:04;3.80;99.90
31046;DHT22;17711;54.018;9.300;2023-03-01T08:03:36;3.90;99.90
31046;DHT22;17711;54.018;9.300;2023-03-01T08:06:06;4.00;99.90
31046;DHT22;17711;54.018;9.300;2023-03-01T08:08:35;4.10;99.90
31046;DHT22;17711;54.018;9.300;2023-03-01T08:11:06;4.20;99.90
31046;DHT22;17711;54.018;9.300;2023-03-01T08:13:34;4.30;99.90
31046;DHT22;17711;54.018;9.300;2023-03-01T08:16:06;4.50;99.90
31046;DHT22;17711;54.018;9.300;2023-03-01T08:18:35;4.70;99.90
31046;DHT22;17711;54.018;9.300;2023-03-01T08:21:05;4.80;99.90
31046;DHT22;17711;54.018;9.300;2023-03-01T08:23:34;4.90;99.90
31046;DHT22;17711;54.018;9.300;2023-03-01T08:26:05;5.00;99.90
31046;DHT22;17711;54.018;9.300;2023-03-01T08:28:34;5.10;99.90
31046;DHT22;17711;54.018;9.300;2023-03-01T08:31:12;5.20;99.90
31046;DHT22;17711;54.018;9.300;2023-03-01T08:33:41;5.30;99.90
31046;DHT22;17711;54.018;9.300;2023-03-01T08:36:09;5.20;99.90
31046;DHT22;17711;54.018;9.300;2023-03-01T08:38:38;5.30;99.90
31046;DHT22;17711;54.018;9.300;2023-03-01T08:41:07;5.30;99.90
31046;DHT22;17711;54.018;9.300;2023-03-01T08:43:35;5.30;99.90
31046;DHT22;17711;54.018;9.300;2023-03-01T08:46:05;5.30;99.90
31046;DHT22;17711;54.018;9.300;2023-03-01T08:48:34;5.40;99.90
31046;DHT22;17711;54.018;9.300;2023-03-01T08:51:09;5.40;99.90
31046;DHT22;17711;54.018;9.300;2023-03-01T08:53:39;5.50;99.90
31046;DHT22;17711;54.018;9.300;2023-03-01T08:56:08;5.50;99.90
31046;DHT22;17711;54.018;9.300;2023-03-01T08:58:38;5.50;99.90
31046;DHT22;17711;54.018;9.300;2023-03-01T09:01:09;5.50;99.90
31046;DHT22;17711;54.018;9.300;2023-03-01T09:03:38;5.50;99.90
31046;DHT22;17711;54.018;9.300;2023-03-01T09:06:07;5.60;99.90
31046;DHT22;17711;54.018;9.300;2023-03-01T09:08:37;5.60;99.90
31046;DHT22;17711;54.018;9.300;2023-03-01T09:11:08;5.60;99.90
31046;DHT22;17711;54.018;9.300;2023-03-01T09:13:37;5.70;99.90
31046;DHT22;17711;54.018;9.300;2023-03-01T09:16:11;5.70;99.90
31046;DHT22;17711;54.018;9.300;2023-03-01T09:18:40;5.70;99.90
31046;DHT22;17711;54.018;9.300;2023-03-01T09:21:11;5.80;99.90
31046;DHT22;17711;54.018;9.300;2023-03-01T09:23:41;5.80;99.90
31046;DHT22;17711;54.018;9.300;2023-03-01T09:26:12;5.90;99.90
31046;DHT22;17711;54.018;9.300;2023-03-01T09:28:41;5.90;99.90
31046;DHT22;17711;54.018;9.300;2023-03-01T09:31:13;5.90;99.90
31046;DHT22;17711;54.018;9.300;2023-03-01T09:33:42;5.90;99.90
31046;DHT22;17711;54.018;9.300;2023-03-01T09:36:15;6.00;99.90
31046;DHT22;17711;54.018;9.300;2023-03-01T09:38:44;6.00;99.90
31046;DHT22;17711;54.018;9.300;2023-03-01T09:41:24;6.00;99.90
31046;DHT22;17711;54.018;9.300;2023-03-01T09:43:59;6.10;99.90
31046;DHT22;17711;54.018;9.300;2023-03-01T09:46:32;6.10;99.90
31046;DHT22;17711;54.018;9.300;2023-03-01T09:49:10;6.20;99.90
31046;DHT22;17711;54.018;9.300;2023-03-01T09:51:40;6.20;99.90
31046;DHT22;17711;54.018;9.300;2023-03-01T09:54:11;6.20;99.90
31046;DHT22;17711;54.018;9.300;2023-03-01T09:56:43;6.20;99.90
31046;DHT22;17711;54.018;9.300;2023-03-01T09:59:23;6.20;99.90
31046;DHT22;17711;54.018;9.300;2023-03-01T10:01:59;6.20;99.90
31046;DHT22;17711;54.018;9.300;2023-03-01T10:04:40;6.20;99.90
31046;DHT22;17711;54.018;9.300;2023-03-01T10:07:27;6.20;99.90
31046;DHT22;17711;54.018;9.300;2023-03-01T10:09:58;6.20;99.90
31046;DHT22;17711;54.018;9.300;2023-03-01T10:12:34;6.20;99.90
31046;DHT22;17711;54.018;9.300;2023-03-01T10:15:07;6.20;99.90
31046;DHT22;17711;54.018;9.300;2023-03-01T10:17:44;6.20;99.90
31046;DHT22;17711;54.018;9.300;2023-03-01T10:20:18;6.30;99.90
31046;DHT22;17711;54.018;9.300;2023-03-01T10:22:48;6.40;99.90
31046;DHT22;17711;54.018;9.300;2023-03-01T10:25:48;6.40;99.90
31046;DHT22;17711;54.018;9.300;2023-03-01T10:28:25;6.50;99.90
31046;DHT22;17711;54.018;9.300;2023-03-01T10:30:54;6.60;99.90
31046;DHT22;17711;54.018;9.300;2023-03-01T10:33:26;6.60;99.90
31046;DHT22;17711;54.018;9.300;2023-03-01T10:35:55;6.70;99.90
31046;DHT22;17711;54.018;9.300;2023-03-01T10:38:24;6.70;99.90
31046;DHT22;17711;54.018;9.300;2023-03-01T10:40:55;6.70;99.90
31046;DHT22;17711;54.018;9.300;2023-03-01T10:43:25;6.70;99.90
31046;DHT22;17711;54.018;9.300;2023-03-01T10:45:55;6.80;99.90
31046;DHT22;17711;54.018;9.300;2023-03-01T10:48:26;6.90;99.90
31046;DHT22;17711;54.018;9.300;2023-03-01T10:51:06;7.00;99.90
31046;DHT22;17711;54.018;9.300;2023-03-01T10:53:37;7.00;99.90
31046;DHT22;17711;54.018;9.300;2023-03-01T10:56:08;7.00;99.90
31046;DHT22;17711;54.018;9.300;2023-03-01T10:58:39;6.90;99.90
31046;DHT22;17711;54.018;9.300;2023-03-01T11:01:26;6.90;99.90
31046;DHT22;17711;54.018;9.300;2023-03-01T11:04:13;7.00;99.90
31046;DHT22;17711;54.018;9.300;2023-03-01T11:06:43;6.90;99.90
31046;DHT22;17711;54.018;9.300;2023-03-01T11:09:25;6.80;99.90
31046;DHT22;17711;54.018;9.300;2023-03-01T11:11:56;6.70;99.90
31046;DHT22;17711;54.018;9.300;2023-03-01T11:14:27;6.70;99.90
31046;DHT22;17711;54.018;9.300;2023-03-01T11:17:03;6.80;99.90
31046;DHT22;17711;54.018;9.300;2023-03-01T11:19:33;6.80;99.90
31046;DHT22;17711;54.018;9.300;2023-03-01T11:22:03;6.90;99.90
31046;DHT22;17711;54.018;9.300;2023-03-01T11:24:38;7.00;99.90
31046;DHT22;17711;54.018;9.300;2023-03-01T11:27:17;7.20;99.90
31046;DHT22;17711;54.018;9.300;2023-03-01T11:29:51;7.40;99.90
31046;DHT22;17711;54.018;9.300;2023-03-01T11:32:22;7.40;99.90
31046;DHT22;17711;54.018;9.300;2023-03-01T11:34:55;7.20;99.90
31046;DHT22;17711;54.018;9.300;2023-03-01T11:37:33;7.20;99.90
31046;DHT22;17711;54.018;9.300;2023-03-01T11:40:12;7.10;99.90
31046;DHT22;17711;54.018;9.300;2023-03-01T11:42:52;7.00;99.90
31046;DHT22;17711;54.018;9.300;2023-03-01T11:45:24;7.00;99.90
31046;DHT22;17711;54.018;9.300;2023-03-01T11:48:05;7.10;99.90
31046;DHT22;17711;54.018;9.300;2023-03-01T11:50:41;7.10;99.90
31046;DHT22;17711;54.018;9.300;2023-03-01T11:53:34;7.10;99.90
31046;DHT22;17711;54.018;9.300;2023-03-01T11:56:19;7.00;99.90
31046;DHT22;17711;54.018;9.300;2023-03-01T11:59:03;7.00;99.90
31046;DHT22;17711;54.018;9.300;2023-03-01T12:01:45;7.00;99.90
31046;DHT22;17711;54.018;9.300;2023-03-01T12:04:43;7.10;99.90
31046;DHT22;17711;54.018;9.300;2023-03-01T12:07:23;7.20;99.90
31046;DHT22;17711;54.018;9.300;2023-03-01T12:10:18;7.20;99.90
31046;DHT22;17711;54.018;9.300;2023-03-01T12:13:11;7.10;99.90
31046;DHT22;17711;54.018;9.300;2023-03-01T12:16:07;7.00;99.90
31046;DHT22;17711;54.018;9.300;2023-03-01T12:19:01;7.20;99.90
31046;DHT22;17711;54.018;9.300;2023-03-01T12:21:42;7.30;99.90
31046;DHT22;17711;54.018;9.300;2023-03-01T12:24:36;7.40;99.90
31046;DHT22;17711;54.018;9.300;2023-03-01T12:27:19;7.30;99.90
31046;DHT22;17711;54.018;9.300;2023-03-01T12:29:59;7.30;99.90
31046;DHT22;17711;54.018;9.300;2023-03-01T12:32:40;7.30;99.90
31046;DHT22;17711;54.018;9.300;2023-03-01T12:35:23;7.00;99.90
31046;DHT22;17711;54.018;9.300;2023-03-01T12:37:58;6.90;99.90
31046;DHT22;17711;54.018;9.300;2023-03-01T12:40:51;6.80;99.90
31046;DHT22;17711;54.018;9.300;2023-03-01T12:43:40;7.00;99.90
31046;DHT22;17711;54.018;9.300;2023-03-01T12:46:21;7.10;99.90
31046;DHT22;17711;54.018;9.300;2023-03-01T12:49:00;6.90;99.90
31046;DHT22;17711;54.018;9.300;2023-03-01T12:51:32;6.70;99.90
31046;DHT22;17711;54.018;9.300;2023-03-01T12:54:10;6.60;99.90
31046;DHT22;17711;54.018;9.300;2023-03-01T12:56:42;6.60;99.90
31046;DHT22;17711;54.018;9.300;2023-03-01T12:59:24;6.70;99.90
31046;DHT22;17711;54.018;9.300;2023-03-01T13:02:02;6.70;99.90
31046;DHT22;17711;54.018;9.300;2023-03-01T13:04:43;6.80;99.90
31046;DHT22;17711;54.018;9.300;2023-03-01T13:07:22;6.90;99.90
31046;DHT22;17711;54.018;9.300;2023-03-01T13:10:01;6.90;99.90
31046;DHT22;17711;54.018;9.300;2023-03-01T13:12:51;7.00;99.90
31046;DHT22;17711;54.018;9.300;2023-03-01T13:15:34;7.10;99.90
31046;DHT22;17711;54.018;9.300;2023-03-01T13:18:11;7.20;99.90
31046;DHT22;17711;54.018;9.300;2023-03-01T13:20:54;7.20;99.90
31046;DHT22;17711;54.018;9.300;2023-03-01T13:23:26;7.30;99.90
31046;DHT22;17711;54.018;9.300;2023-03-01T13:26:10;7.30;99.90
31046;DHT22;17711;54.018;9.300;2023-03-01T13:31:58;7.50;99.90
31046;DHT22;17711;54.018;9.300;2023-03-01T13:34:50;7.60;99.90
31046;DHT22;17711;54.018;9.300;2023-03-01T13:37:23;7.80;99.90
31046;DHT22;17711;54.018;9.300;2023-03-01T13:39:52;7.80;99.90
31046;DHT22;17711;54.018;9.300;2023-03-01T13:42:42;8.10;99.90
31046;DHT22;17711;54.018;9.300;2023-03-01T13:45:36;8.50;99.90
31046;DHT22;17711;54.018;9.300;2023-03-01T13:48:10;8.60;99.90
31046;DHT22;17711;54.018;9.300;2023-03-01T13:50:47;8.60;99.90
31046;DHT22;17711;54.018;9.300;2023-03-01T13:53:20;8.80;99.90
31046;DHT22;17711;54.018;9.300;2023-03-01T13:55:52;9.00;99.90
31046;DHT22;17711;54.018;9.300;2023-03-01T13:58:28;9.20;99.90
31046;DHT22;17711;54.018;9.300;2023-03-01T14:01:01;9.40;99.90
31046;DHT22;17711;54.018;9.300;2023-03-01T14:03:31;10.50;99.90
31046;DHT22;17711;54.018;9.300;2023-03-01T14:06:03;10.80;99.90
31046;DHT22;17711;54.018;9.300;2023-03-01T14:08:46;10.80;99.90
31046;DHT22;17711;54.018;9.300;2023-03-01T14:11:43;10.40;99.90
31046;DHT22;17711;54.018;9.300;2023-03-01T14:14:40;10.00;99.90
31046;DHT22;17711;54.018;9.300;2023-03-01T14:20:20;9.20;99.90
31046;DHT22;17711;54.018;9.300;2023-03-01T14:22:52;8.90;99.90
31046;DHT22;17711;54.018;9.300;2023-03-01T14:25:26;8.80;99.90
31046;DHT22;17711;54.018;9.300;2023-03-01T14:27:59;8.60;99.90
31046;DHT22;17711;54.018;9.300;2023-03-01T14:30:34;8.40;99.90
31046;DHT22;17711;54.018;9.300;2023-03-01T14:33:06;8.20;99.90
31046;DHT22;17711;54.018;9.300;2023-03-01T14:35:36;8.20;99.90
31046;DHT22;17711;54.018;9.300;2023-03-01T14:38:05;8.10;99.90
31046;DHT22;17711;54.018;9.300;2023-03-01T14:40:35;8.20;99.90
31046;DHT22;17711;54.018;9.300;2023-03-01T14:43:10;8.50;99.90
31046;DHT22;17711;54.018;9.300;2023-03-01T14:45:39;9.10;99.90
31046;DHT22;17711;54.018;9.300;2023-03-01T14:48:08;9.30;99.90
31046;DHT22;17711;54.018;9.300;2023-03-01T14:50:41;9.40;99.90
31046;DHT22;17711;54.018;9.300;2023-03-01T14:53:16;9.10;99.90
31046;DHT22;17711;54.018;9.300;2023-03-01T14:55:47;8.80;99.90
31046;DHT22;17711;54.018;9.300;2023-03-01T14:58:20;8.70;99.90
31046;DHT22;17711;54.018;9.300;2023-03-01T15:00:52;8.80;99.90
31046;DHT22;17711;54.018;9.300;2023-03-01T15:03:30;8.90;99.90
31046;DHT22;17711;54.018;9.300;2023-03-01T15:06:01;8.80;99.90
31046;DHT22;17711;54.018;9.300;2023-03-01T15:08:31;8.60;99.90
31046;DHT22;17711;54.018;9.300;2023-03-01T15:11:05;8.40;99.90
31046;DHT22;17711;54.018;9.300;2023-03-01T15:13:35;8.30;99.90
31046;DHT22;17711;54.018;9.300;2023-03-01T15:16:09;8.20;99.90
31046;DHT22;17711;54.018;9.300;2023-03-01T15:18:42;8.00;99.90
31046;DHT22;17711;54.018;9.300;2023-03-01T15:21:18;7.70;99.90
31046;DHT22;17711;54.018;9.300;2023-03-01T15:23:52;7.50;99.90
31046;DHT22;17711;54.018;9.300;2023-03-01T15:26:28;7.30;99.90
31046;DHT22;17711;54.018;9.300;2023-03-01T15:28:59;7.10;99.90
31046;DHT22;17711;54.018;9.300;2023-03-01T15:31:37;6.90;99.90
31046;DHT22;17711;54.018;9.300;2023-03-01T15:34:21;6.90;99.90
31046;DHT22;17711;54.018;9.300;2023-03-01T15:36:54;6.80;99.90
31046;DHT22;17711;54.018;9.300;2023-03-01T15:39:33;6.80;99.90
31046;DHT22;17711;54.018;9.300;2023-03-01T15:42:06;6.70;99.90
31046;DHT22;17711;54.018;9.300;2023-03-01T15:44:37;6.60;99.90
31046;DHT22;17711;54.018;9.300;2023-03-01T15:47:25;6.40;99.90
31046;DHT22;17711;54.018;9.300;2023-03-01T15:49:54;6.20;99.90
31046;DHT22;17711;54.018;9.300;2023-03-01T15:52:27;6.10;99.90
31046;DHT22;17711;54.018;9.300;2023-03-01T15:54:59;6.10;99.90
31046;DHT22;17711;54.018;9.300;2023-03-01T15:57:28;6.10;99.90
31046;DHT22;17711;54.018;9.300;2023-03-01T15:59:57;6.20;99.90
31046;DHT22;17711;54.018;9.300;2023-03-01T16:02:25;6.30;99.90
31046;DHT22;17711;54.018;9.300;2023-03-01T16:04:57;6.30;99.90
31046;DHT22;17711;54.018;9.300;2023-03-01T16:07:27;6.30;99.90
31046;DHT22;17711;54.018;9.300;2023-03-01T16:09:55;6.20;99.90
31046;DHT22;17711;54.018;9.300;2023-03-01T16:12:24;6.20;99.90
31046;DHT22;17711;54.018;9.300;2023-03-01T16:14:55;6.10;99.90
31046;DHT22;17711;54.018;9.300;2023-03-01T16:17:29;6.10;99.90
31046;DHT22;17711;54.018;9.300;2023-03-01T16:20:01;6.00;99.90
31046;DHT22;17711;54.018;9.300;2023-03-01T16:22:36;6.00;99.90
31046;DHT22;17711;54.018;9.300;2023-03-01T16:25:05;5.90;99.90
31046;DHT22;17711;54.018;9.300;2023-03-01T16:27:35;5.80;99.90